Weather at Coleman Green Airstrip

Public forecast

Using degrees Celsius for public forecast. Weather courtesy of forecast.io.

Closest aviation weather report (METAR) to Coleman Green Airstrip

Closest report is London Luton Airport, 6.1 nm (11.2 km) NW. Retrieved 2021/06/22 16:50 UTC (41 minutes ago):

EGGW 221650Z AUTO 03012KT 9999 OVC046 14/07 Q1022

Closest aviation forecast (TAF) to Coleman Green Airstrip

Closest forecast is London Luton Airport, 6.1 nm (11.2 km) NW. Retrieved 2021/06/22 12:00 UTC (6 hours ago):

TAF EGGW 221054Z 2212/2312 03012KT 9999 SCT035 BECMG 2221/2224 33004KT